createdAt,value
2019-02-28T00:00:49.868Z,30.88
2019-02-28T00:03:20.306Z,37.87
2019-02-28T00:05:49.010Z,35.47
2019-02-28T00:08:17.663Z,37.28
2019-02-28T00:10:46.472Z,33.73
2019-02-28T00:13:15.176Z,30.03
2019-02-28T00:15:45.434Z,27.42
2019-02-28T00:18:15.305Z,41.40
2019-02-28T00:20:44.555Z,26.40
2019-02-28T00:23:13.276Z,42.90
2019-02-28T00:25:43.931Z,30.43
2019-02-28T00:28:14.197Z,38.88
2019-02-28T00:30:42.851Z,22.22
2019-02-28T00:33:11.586Z,33.98
2019-02-28T00:35:44.622Z,24.90
2019-02-28T00:38:12.003Z,62.15
2019-02-28T00:40:40.598Z,41.53
2019-02-28T00:43:09.274Z,38.92
2019-02-28T00:45:38.155Z,37.33
2019-02-28T00:48:08.473Z,21.35
2019-02-28T00:50:37.628Z,30.30
2019-02-28T00:53:07.355Z,20.97
2019-02-28T00:55:37.753Z,33.30
2019-02-28T00:58:06.853Z,24.92
2019-02-28T01:00:37.198Z,23.95
2019-02-28T01:03:05.933Z,37.67
2019-02-28T01:05:36.704Z,23.47
2019-02-28T01:08:04.990Z,19.98
2019-02-28T01:10:38.710Z,28.85
2019-02-28T01:13:03.991Z,30.13
2019-02-28T01:15:32.662Z,36.28
2019-02-28T01:18:01.579Z,32.93
2019-02-28T01:20:31.595Z,28.23
2019-02-28T01:23:00.396Z,36.67
2019-02-28T01:25:31.058Z,31.17
2019-02-28T01:27:59.429Z,35.10
2019-02-28T01:30:28.041Z,34.97
2019-02-28T01:32:57.944Z,35.40
2019-02-28T01:35:28.231Z,31.93
2019-02-28T01:37:58.088Z,27.93
2019-02-28T01:40:26.767Z,36.13
2019-02-28T01:42:55.430Z,27.20
2019-02-28T01:45:27.553Z,30.80
2019-02-28T01:47:56.432Z,29.00
2019-02-28T01:50:25.053Z,21.27
2019-02-28T01:52:54.272Z,30.23
2019-02-28T01:55:23.928Z,30.60
2019-02-28T01:57:52.646Z,23.47
2019-02-28T02:00:23.806Z,22.77
2019-02-28T02:02:54.157Z,29.50
2019-02-28T02:05:22.380Z,29.73
2019-02-28T02:07:51.679Z,24.72
2019-02-28T02:10:22.505Z,26.23
2019-02-28T02:12:51.841Z,23.83
2019-02-28T02:15:20.973Z,25.97
2019-02-28T02:17:49.780Z,26.03
2019-02-28T02:20:18.397Z,24.23
2019-02-28T02:22:47.049Z,10.93
2019-02-28T02:25:15.667Z,18.40
2019-02-28T02:27:44.414Z,14.00
2019-02-28T02:30:26.382Z,18.67
2019-02-28T02:32:55.067Z,19.80
2019-02-28T02:35:24.027Z,25.33
2019-02-28T02:37:52.669Z,30.57
2019-02-28T02:40:22.966Z,27.07
2019-02-28T02:42:52.219Z,26.03
2019-02-28T02:45:20.806Z,22.77
2019-02-28T02:47:49.788Z,23.03
2019-02-28T02:50:19.463Z,27.17
2019-02-28T02:52:48.119Z,21.25
2019-02-28T02:55:16.741Z,16.13
2019-02-28T02:57:50.471Z,26.12
2019-02-28T03:00:17.384Z,19.98
2019-02-28T03:02:45.940Z,14.00
2019-02-28T03:05:14.790Z,13.97
2019-02-28T03:07:43.443Z,19.37
2019-02-28T03:10:19.409Z,18.87
2019-02-28T03:12:48.112Z,13.57
2019-02-28T03:15:24.783Z,35.53
2019-02-28T03:17:48.770Z,23.80
2019-02-28T03:20:17.745Z,20.08
2019-02-28T03:22:46.722Z,21.27
2019-02-28T03:25:16.550Z,24.80
2019-02-28T03:27:45.302Z,14.90
2019-02-28T03:30:27.704Z,21.10
2019-02-28T03:32:49.550Z,17.47
2019-02-28T03:35:18.435Z,23.57
2019-02-28T03:37:47.059Z,17.50
2019-02-28T03:40:15.897Z,30.87
2019-02-28T03:42:44.597Z,24.98
2019-02-28T03:45:15.968Z,18.10
2019-02-28T03:47:44.609Z,20.80
2019-02-28T03:50:13.438Z,19.20
2019-02-28T03:52:44.188Z,21.85
2019-02-28T03:55:15.296Z,22.10
2019-02-28T03:57:43.951Z,20.97
2019-02-28T04:00:32.366Z,16.20
2019-02-28T04:02:58.470Z,21.93
2019-02-28T04:05:28.426Z,32.23
2019-02-28T04:07:57.275Z,20.63
2019-02-28T04:10:26.252Z,20.37
2019-02-28T04:12:54.929Z,25.43
2019-02-28T04:15:23.565Z,18.98
2019-02-28T04:17:52.186Z,20.30
2019-02-28T04:20:20.834Z,19.32
2019-02-28T04:22:49.445Z,19.67
2019-02-28T04:25:22.982Z,16.60
2019-02-28T04:27:49.383Z,20.73
2019-02-28T04:30:18.029Z,18.53
2019-02-28T04:32:46.651Z,25.20
2019-02-28T04:35:15.308Z,24.37
2019-02-28T04:37:47.011Z,19.73
2019-02-28T04:40:15.235Z,28.50
2019-02-28T04:42:45.007Z,22.97
2019-02-28T04:45:14.475Z,27.77
2019-02-28T04:47:43.085Z,15.88
2019-02-28T04:50:13.287Z,9.30
2019-02-28T04:52:46.782Z,22.60
2019-02-28T04:55:13.834Z,29.95
2019-02-28T04:57:42.372Z,22.52
2019-02-28T05:00:17.377Z,37.85
2019-02-28T05:02:46.324Z,28.07
2019-02-28T05:05:14.989Z,48.47
2019-02-28T05:07:43.655Z,38.88
2019-02-28T05:10:12.507Z,38.80
2019-02-28T05:12:41.234Z,44.27
2019-02-28T05:15:11.833Z,47.25
2019-02-28T05:17:40.465Z,40.20
2019-02-28T05:20:10.756Z,31.77
2019-02-28T05:22:40.595Z,16.48
2019-02-28T05:25:10.234Z,19.83
2019-02-28T05:27:38.888Z,24.47
2019-02-28T05:30:19.417Z,30.90
2019-02-28T05:32:45.697Z,24.25
2019-02-28T05:35:14.354Z,23.57
2019-02-28T05:37:46.705Z,37.93
2019-02-28T05:40:16.318Z,27.23
2019-02-28T05:42:45.253Z,22.50
2019-02-28T05:45:14.561Z,29.90
2019-02-28T05:47:46.757Z,28.60
2019-02-28T05:50:16.650Z,23.37
2019-02-28T05:52:46.656Z,20.10
2019-02-28T05:55:16.214Z,33.90
2019-02-28T05:57:45.021Z,36.60
2019-02-28T06:00:17.276Z,39.63
2019-02-28T06:02:45.925Z,36.10
2019-02-28T06:05:14.568Z,34.17
2019-02-28T06:07:43.347Z,36.45
2019-02-28T06:10:15.883Z,33.27
2019-02-28T06:12:45.016Z,44.63
2019-02-28T06:15:17.166Z,34.40
2019-02-28T06:17:45.838Z,45.43
2019-02-28T06:20:16.418Z,45.35
2019-02-28T06:22:44.981Z,58.33
2019-02-28T06:25:22.589Z,41.10
2019-02-28T06:27:49.028Z,43.13
2019-02-28T06:30:16.019Z,31.97
2019-02-28T06:32:44.639Z,45.03
2019-02-28T06:35:16.473Z,37.73
2019-02-28T06:37:43.707Z,29.27
2019-02-28T06:40:13.978Z,20.90
2019-02-28T06:42:43.572Z,31.13
2019-02-28T06:45:15.009Z,22.62
2019-02-28T06:47:48.278Z,34.18
2019-02-28T06:50:15.195Z,22.62
2019-02-28T06:52:43.814Z,37.58
2019-02-28T06:55:23.454Z,30.53
2019-02-28T06:57:52.388Z,27.80
2019-02-28T07:00:21.027Z,23.10
2019-02-28T07:02:50.255Z,29.20
2019-02-28T07:05:24.783Z,27.42
2019-02-28T07:07:50.154Z,27.47
2019-02-28T07:10:19.061Z,34.90
2019-02-28T07:12:48.061Z,28.20
2019-02-28T07:15:17.056Z,37.93
2019-02-28T07:17:46.529Z,31.42
2019-02-28T07:20:17.372Z,37.33
2019-02-28T07:22:45.981Z,33.33
2019-02-28T07:25:14.629Z,32.88
2019-02-28T07:27:43.245Z,37.10
2019-02-28T07:30:18.533Z,42.80
2019-02-28T07:32:47.434Z,26.10
2019-02-28T07:35:16.118Z,34.63
2019-02-28T07:37:44.816Z,36.50
2019-02-28T07:40:16.080Z,38.50
2019-02-28T07:42:45.770Z,36.97
2019-02-28T07:45:15.028Z,30.75
2019-02-28T07:47:43.696Z,37.53
2019-02-28T07:50:14.049Z,33.97
2019-02-28T07:52:42.759Z,40.03
2019-02-28T07:55:18.770Z,34.83
2019-02-28T07:57:50.999Z,36.28
2019-02-28T08:00:20.001Z,39.07
2019-02-28T08:02:48.989Z,33.80
2019-02-28T08:05:17.602Z,33.50
2019-02-28T08:07:50.922Z,20.87
2019-02-28T08:10:24.688Z,27.77
2019-02-28T08:12:53.345Z,30.17
2019-02-28T08:15:26.146Z,29.90
2019-02-28T08:17:55.140Z,24.83
2019-02-28T08:20:23.695Z,37.63
2019-02-28T08:22:52.368Z,26.17
2019-02-28T08:25:20.994Z,39.43
2019-02-28T08:27:49.643Z,28.20
2019-02-28T08:30:35.295Z,44.67
2019-02-28T08:33:03.990Z,36.48
2019-02-28T08:35:34.721Z,44.20
2019-02-28T08:38:02.975Z,42.93
2019-02-28T08:40:31.524Z,25.48
2019-02-28T08:43:00.210Z,37.20
2019-02-28T08:45:32.757Z,27.30
2019-02-28T08:47:59.513Z,37.70
2019-02-28T08:50:28.167Z,37.47
2019-02-28T08:53:02.319Z,32.70
2019-02-28T08:55:30.943Z,25.60
2019-02-28T08:58:05.104Z,41.00
2019-02-28T09:00:32.791Z,42.50
2019-02-28T09:03:00.990Z,39.47
2019-02-28T09:05:30.191Z,34.70
2019-02-28T09:07:58.938Z,34.90
2019-02-28T09:10:27.557Z,38.73
2019-02-28T09:12:56.204Z,33.33
2019-02-28T09:15:30.097Z,37.73
2019-02-28T09:17:58.194Z,30.80
2019-02-28T09:20:25.431Z,49.17
2019-02-28T09:22:54.512Z,33.40
2019-02-28T09:25:24.249Z,32.67
2019-02-28T09:27:53.070Z,55.43
2019-02-28T09:30:36.611Z,35.80
2019-02-28T09:33:05.721Z,47.57
2019-02-28T09:35:35.710Z,35.00
2019-02-28T09:38:07.655Z,43.07
2019-02-28T09:40:34.603Z,42.70
2019-02-28T09:43:03.258Z,48.17
2019-02-28T09:45:32.822Z,46.53
2019-02-28T09:48:02.315Z,45.93
2019-02-28T09:50:33.008Z,45.25
2019-02-28T09:53:01.734Z,39.60
2019-02-28T09:55:34.157Z,44.05
2019-02-28T09:58:00.671Z,53.10
2019-02-28T10:00:30.325Z,35.60
2019-02-28T10:02:58.955Z,38.73
2019-02-28T10:05:27.569Z,26.42
2019-02-28T10:08:01.559Z,47.00
2019-02-28T10:10:31.661Z,22.77
2019-02-28T10:13:00.323Z,27.63
2019-02-28T10:15:28.953Z,36.67
2019-02-28T10:18:00.804Z,34.33
2019-02-28T10:20:29.285Z,41.50
2019-02-28T10:22:58.840Z,42.87
2019-02-28T10:25:27.506Z,22.33
2019-02-28T10:28:01.724Z,32.88
2019-02-28T10:30:31.563Z,25.43
2019-02-28T10:32:57.656Z,27.52
2019-02-28T10:35:26.313Z,25.90
2019-02-28T10:37:58.376Z,30.17
2019-02-28T10:40:26.583Z,33.15
2019-02-28T10:42:55.218Z,30.13
2019-02-28T10:45:24.427Z,41.80
2019-02-28T10:47:53.079Z,36.67
2019-02-28T10:50:31.923Z,39.83
2019-02-28T10:52:56.867Z,28.07
2019-02-28T10:55:25.490Z,45.47
2019-02-28T10:57:54.173Z,38.03
2019-02-28T11:00:32.834Z,37.50
2019-02-28T11:03:01.207Z,23.40
2019-02-28T11:05:35.487Z,23.03
2019-02-28T11:08:04.700Z,29.47
2019-02-28T11:10:36.294Z,19.67
2019-02-28T11:13:07.341Z,23.63
2019-02-28T11:15:36.378Z,25.13
2019-02-28T11:18:08.597Z,20.27
2019-02-28T11:20:35.578Z,16.33
2019-02-28T11:23:04.487Z,19.10
2019-02-28T11:25:35.446Z,31.37
2019-02-28T11:28:03.784Z,30.63
2019-02-28T11:30:33.099Z,20.00
2019-02-28T11:33:04.346Z,18.20
2019-02-28T11:35:32.419Z,19.17
2019-02-28T11:38:01.396Z,16.10
2019-02-28T11:40:30.047Z,19.23
2019-02-28T11:42:59.494Z,30.00
2019-02-28T11:45:32.117Z,24.43
2019-02-28T11:48:03.117Z,20.10
2019-02-28T11:50:31.780Z,24.12
2019-02-28T11:53:04.898Z,23.00
2019-02-28T11:55:31.686Z,11.05
2019-02-28T11:58:00.328Z,14.73
2019-02-28T12:00:32.478Z,11.18
2019-02-28T12:03:02.278Z,13.50
2019-02-28T12:05:30.893Z,13.73
2019-02-28T12:07:59.509Z,22.23
2019-02-28T12:10:28.581Z,14.57
2019-02-28T12:12:57.134Z,13.65
2019-02-28T12:15:34.051Z,13.15
2019-02-28T12:18:04.660Z,13.90
2019-02-28T12:20:33.483Z,17.60
2019-02-28T12:23:02.146Z,15.20
2019-02-28T12:25:30.768Z,22.63
2019-02-28T12:28:02.527Z,23.80
2019-02-28T12:30:33.360Z,18.05
2019-02-28T12:33:01.936Z,21.23
2019-02-28T12:35:37.445Z,29.83
2019-02-28T12:38:00.924Z,15.13
2019-02-28T12:40:42.561Z,16.95
2019-02-28T12:43:12.607Z,28.77
2019-02-28T12:45:47.368Z,12.85
2019-02-28T12:48:16.104Z,23.52
2019-02-28T12:50:44.773Z,20.57
2019-02-28T12:53:13.385Z,31.10
2019-02-28T12:55:42.045Z,21.07
2019-02-28T12:58:10.633Z,19.40
2019-02-28T13:00:41.174Z,14.15
2019-02-28T13:03:09.936Z,10.17
2019-02-28T13:05:38.927Z,24.67
2019-02-28T13:08:07.894Z,26.93
2019-02-28T13:10:36.598Z,29.92
2019-02-28T13:13:07.327Z,22.53
2019-02-28T13:15:35.848Z,19.43
2019-02-28T13:18:09.006Z,25.82
2019-02-28T13:20:38.773Z,30.27
2019-02-28T13:23:08.388Z,19.42
2019-02-28T13:25:37.063Z,35.37
2019-02-28T13:28:07.219Z,19.90
2019-02-28T13:30:35.990Z,27.77
2019-02-28T13:33:05.550Z,34.80
2019-02-28T13:35:47.153Z,34.70
2019-02-28T13:38:17.689Z,23.50
2019-02-28T13:40:44.699Z,25.90
2019-02-28T13:43:19.663Z,38.43
2019-02-28T13:45:43.441Z,46.67
2019-02-28T13:48:12.070Z,43.58
2019-02-28T13:50:40.731Z,53.20
2019-02-28T13:53:18.541Z,32.67
2019-02-28T13:55:40.821Z,27.23
2019-02-28T13:58:09.452Z,28.62
2019-02-28T14:00:43.837Z,30.62
2019-02-28T14:03:12.028Z,23.10
2019-02-28T14:05:41.601Z,20.33
2019-02-28T14:08:12.201Z,32.65
2019-02-28T14:10:41.273Z,29.00
2019-02-28T14:13:09.940Z,30.37
2019-02-28T14:15:41.429Z,57.58
2019-02-28T14:18:10.865Z,24.52
2019-02-28T14:20:40.700Z,29.27
2019-02-28T14:23:09.670Z,46.37
2019-02-28T14:25:39.806Z,39.05
2019-02-28T14:28:08.602Z,32.00
2019-02-28T14:30:37.236Z,31.33
2019-02-28T14:33:06.806Z,37.03
2019-02-28T14:35:38.484Z,30.60
2019-02-28T14:38:06.188Z,31.70
2019-02-28T14:40:34.802Z,18.98
2019-02-28T14:43:03.430Z,30.67
2019-02-28T14:45:42.699Z,27.73
2019-02-28T14:48:10.611Z,19.57
2019-02-28T14:50:39.244Z,33.42
2019-02-28T14:53:13.016Z,19.70
2019-02-28T14:55:38.145Z,31.17
2019-02-28T14:58:06.781Z,43.67
2019-02-28T15:00:35.624Z,29.83
2019-02-28T15:03:04.419Z,29.30
2019-02-28T15:05:39.019Z,24.83
2019-02-28T15:08:07.664Z,22.20
2019-02-28T15:10:36.811Z,30.87
2019-02-28T15:13:05.434Z,17.83
2019-02-28T15:15:36.180Z,18.43
2019-02-28T15:18:04.881Z,14.47
2019-02-28T15:20:33.548Z,20.03
2019-02-28T15:23:02.153Z,17.63
2019-02-28T15:25:31.012Z,30.73
2019-02-28T15:27:59.650Z,16.10
2019-02-28T15:30:39.522Z,12.55
2019-02-28T15:33:08.180Z,7.47
2019-02-28T15:35:37.173Z,20.65
2019-02-28T15:38:09.392Z,15.85
2019-02-28T15:40:40.338Z,7.95
2019-02-28T15:43:08.536Z,18.65
2019-02-28T15:45:37.372Z,21.23
2019-02-28T15:48:06.025Z,15.48
2019-02-28T15:50:34.698Z,14.78
2019-02-28T15:53:03.357Z,11.30
2019-02-28T15:55:35.108Z,10.30
2019-02-28T15:58:02.734Z,9.03
2019-02-28T16:00:33.946Z,10.48
2019-02-28T16:03:02.624Z,8.90
2019-02-28T16:05:31.315Z,4.47
2019-02-28T16:07:59.986Z,10.60
2019-02-28T16:10:33.534Z,12.95
2019-02-28T16:13:02.212Z,14.50
2019-02-28T16:15:30.830Z,14.38
2019-02-28T16:17:59.493Z,16.57
2019-02-28T16:20:28.663Z,19.90
2019-02-28T16:22:58.419Z,10.82
2019-02-28T16:25:36.064Z,7.50
2019-02-28T16:28:08.929Z,8.27
2019-02-28T16:30:40.696Z,14.70
2019-02-28T16:33:09.331Z,15.32
2019-02-28T16:35:38.065Z,18.35
2019-02-28T16:38:09.879Z,9.00
2019-02-28T16:40:39.481Z,12.90
2019-02-28T16:43:08.117Z,11.60
2019-02-28T16:45:41.006Z,20.40
2019-02-28T16:48:08.750Z,7.73
2019-02-28T16:50:37.442Z,12.35
2019-02-28T16:53:07.394Z,11.80
2019-02-28T16:55:36.120Z,14.80
2019-02-28T16:58:06.150Z,9.53
2019-02-28T17:00:34.854Z,9.08
2019-02-28T17:03:04.067Z,11.88
2019-02-28T17:05:33.967Z,8.05
2019-02-28T17:08:06.660Z,16.67
2019-02-28T17:10:36.567Z,16.05
2019-02-28T17:13:10.330Z,20.92
2019-02-28T17:15:48.787Z,24.80
2019-02-28T17:18:22.604Z,12.63
2019-02-28T17:20:51.452Z,8.93
2019-02-28T17:23:20.099Z,9.20
2019-02-28T17:25:48.950Z,17.43
2019-02-28T17:28:23.524Z,18.20
2019-02-28T17:31:11.642Z,7.43
2019-02-28T17:33:43.412Z,17.13
2019-02-28T17:36:11.612Z,12.43
2019-02-28T17:38:42.374Z,16.93
2019-02-28T17:41:12.703Z,7.17
2019-02-28T17:43:41.550Z,5.13
2019-02-28T17:46:15.741Z,10.40
2019-02-28T17:48:56.144Z,10.27
2019-02-28T17:51:31.112Z,26.03
2019-02-28T17:54:03.012Z,18.03
2019-02-28T17:56:40.852Z,7.42
2019-02-28T17:59:12.342Z,7.83
2019-02-28T18:01:53.524Z,6.58
2019-02-28T18:04:36.129Z,6.57
2019-02-28T18:07:04.968Z,7.10
2019-02-28T18:09:36.849Z,14.40
2019-02-28T18:12:11.939Z,9.53
2019-02-28T18:14:48.634Z,9.17
2019-02-28T18:17:32.481Z,12.57
2019-02-28T18:20:07.719Z,8.80
2019-02-28T18:22:42.187Z,7.15
2019-02-28T18:25:26.196Z,11.10
2019-02-28T18:28:10.196Z,9.20
2019-02-28T18:30:58.535Z,9.58
2019-02-28T18:33:27.189Z,9.18
2019-02-28T18:35:55.859Z,17.87
2019-02-28T18:38:24.779Z,16.67
2019-02-28T18:40:53.430Z,10.27
2019-02-28T18:43:23.907Z,8.03
2019-02-28T18:45:53.628Z,8.33
2019-02-28T18:48:22.371Z,13.32
2019-02-28T18:50:51.039Z,10.03
2019-02-28T18:53:19.586Z,9.23
2019-02-28T18:55:48.613Z,7.13
2019-02-28T18:58:17.348Z,7.13
2019-02-28T19:00:46.007Z,11.08
2019-02-28T19:03:14.696Z,10.10
2019-02-28T19:05:43.456Z,11.63
2019-02-28T19:08:12.166Z,4.87
2019-02-28T19:10:40.803Z,8.90
2019-02-28T19:13:11.410Z,9.77
2019-02-28T19:15:39.919Z,6.70
2019-02-28T19:18:08.580Z,6.60
2019-02-28T19:20:37.191Z,10.60
2019-02-28T19:23:05.827Z,9.40
2019-02-28T19:25:34.441Z,13.00
2019-02-28T19:28:03.069Z,12.20
2019-02-28T19:30:32.160Z,6.73
2019-02-28T19:33:00.854Z,15.73
2019-02-28T19:35:29.572Z,19.50
2019-02-28T19:37:58.280Z,20.50
2019-02-28T19:40:29.935Z,19.60
2019-02-28T19:42:58.590Z,27.48
2019-02-28T19:45:33.138Z,27.17
2019-02-28T19:48:02.200Z,16.97
2019-02-28T19:50:30.846Z,8.80
2019-02-28T19:53:00.035Z,22.43
2019-02-28T19:55:29.131Z,24.80
2019-02-28T19:57:57.907Z,14.80
2019-02-28T20:00:28.054Z,13.10
2019-02-28T20:02:57.878Z,16.60
2019-02-28T20:05:26.589Z,17.40
2019-02-28T20:07:55.293Z,9.70
2019-02-28T20:10:24.969Z,22.53
2019-02-28T20:12:53.675Z,13.53
2019-02-28T20:15:28.493Z,6.00
2019-02-28T20:17:57.277Z,12.47
2019-02-28T20:20:29.201Z,15.83
2019-02-28T20:22:57.834Z,20.33
2019-02-28T20:25:26.800Z,15.23
2019-02-28T20:27:55.487Z,22.63
2019-02-28T20:30:25.840Z,23.90
2019-02-28T20:32:54.551Z,19.47
2019-02-28T20:35:26.839Z,6.40
2019-02-28T20:37:54.889Z,14.80
2019-02-28T20:40:29.861Z,13.43
2019-02-28T20:42:58.611Z,10.57
2019-02-28T20:45:27.275Z,7.90
2019-02-28T20:47:57.751Z,8.47
2019-02-28T20:50:46.170Z,8.80
2019-02-28T20:53:16.386Z,14.43
2019-02-28T20:55:46.756Z,9.90
2019-02-28T20:58:16.085Z,4.33
2019-02-28T21:00:44.872Z,7.00
2019-02-28T21:03:13.830Z,9.47
2019-02-28T21:05:42.475Z,6.20
2019-02-28T21:08:11.182Z,6.67
2019-02-28T21:10:39.870Z,9.60
2019-02-28T21:13:10.112Z,17.77
2019-02-28T21:15:39.056Z,13.87
2019-02-28T21:18:07.617Z,14.03
2019-02-28T21:20:36.299Z,19.57
2019-02-28T21:23:05.025Z,11.73
2019-02-28T21:25:34.896Z,6.80
2019-02-28T21:28:03.526Z,4.47
2019-02-28T21:30:32.235Z,9.77
2019-02-28T21:33:00.896Z,11.67
2019-02-28T21:35:32.446Z,8.30
2019-02-28T21:38:01.509Z,5.73
2019-02-28T21:40:30.286Z,7.03
2019-02-28T21:42:59.121Z,4.50
2019-02-28T21:45:28.801Z,6.77
2019-02-28T21:47:57.540Z,6.20
2019-02-28T21:50:26.309Z,10.23
2019-02-28T21:52:54.915Z,7.43
2019-02-28T21:55:23.575Z,8.37
2019-02-28T21:57:53.522Z,10.83
2019-02-28T22:00:24.404Z,5.77
2019-02-28T22:02:53.089Z,16.23
2019-02-28T22:05:23.178Z,19.73
2019-02-28T22:07:51.898Z,8.48
2019-02-28T22:10:22.752Z,10.67
2019-02-28T22:12:53.146Z,25.37
2019-02-28T22:15:25.756Z,18.43
2019-02-28T22:17:55.038Z,8.17
2019-02-28T22:20:24.886Z,11.10
2019-02-28T22:22:55.188Z,10.70
2019-02-28T22:25:24.275Z,14.23
2019-02-28T22:27:53.263Z,14.97
2019-02-28T22:30:43.236Z,18.30
2019-02-28T22:33:16.504Z,10.10
2019-02-28T22:35:52.531Z,9.63
2019-02-28T22:38:21.382Z,3.50
2019-02-28T22:40:50.189Z,6.22
2019-02-28T22:43:19.315Z,10.33
2019-02-28T22:45:48.928Z,7.87
2019-02-28T22:48:18.912Z,9.07
2019-02-28T22:50:47.711Z,5.13
2019-02-28T22:53:16.320Z,17.67
2019-02-28T22:55:46.693Z,14.30
2019-02-28T22:58:15.532Z,5.83
2019-02-28T23:00:59.330Z,9.37
2019-02-28T23:03:30.589Z,5.53
2019-02-28T23:05:59.317Z,4.50
2019-02-28T23:08:28.038Z,7.97
2019-02-28T23:10:57.032Z,3.60
2019-02-28T23:13:25.660Z,12.20
2019-02-28T23:15:55.839Z,14.83
2019-02-28T23:18:27.356Z,9.37
2019-02-28T23:20:57.813Z,12.30
2019-02-28T23:23:28.217Z,10.87
2019-02-28T23:26:08.767Z,4.90
2019-02-28T23:28:43.494Z,8.07
2019-02-28T23:31:30.441Z,5.23
2019-02-28T23:34:02.171Z,3.60
2019-02-28T23:36:30.827Z,7.33
2019-02-28T23:39:00.868Z,13.97
2019-02-28T23:41:29.453Z,6.90
2019-02-28T23:43:59.150Z,11.67
2019-02-28T23:46:28.962Z,7.17
2019-02-28T23:48:57.630Z,6.80
2019-02-28T23:51:26.332Z,3.70
2019-02-28T23:53:55.058Z,8.17
2019-02-28T23:56:23.730Z,5.60
2019-02-28T23:58:52.640Z,10.57
